sensor_id;sensor_type;location;lat;lon;timestamp;temperature;humidity
45735;DHT22;31446;49.632;8.328;2023-07-20T00:09:22;20.10;95.20
45735;DHT22;31446;49.632;8.328;2023-07-20T00:24:28;19.90;95.90
45735;DHT22;31446;49.632;8.328;2023-07-20T00:39:34;19.30;96.50
45735;DHT22;31446;49.632;8.328;2023-07-20T00:54:40;19.20;96.60
45735;DHT22;31446;49.632;8.328;2023-07-20T01:09:51;18.80;97.60
45735;DHT22;31446;49.632;8.328;2023-07-20T01:25:11;18.70;98.10
45735;DHT22;31446;49.632;8.328;2023-07-20T01:40:22;18.40;98.80
45735;DHT22;31446;49.632;8.328;2023-07-20T01:55:29;18.00;99.90
45735;DHT22;31446;49.632;8.328;2023-07-20T02:10:36;17.50;99.90
45735;DHT22;31446;49.632;8.328;2023-07-20T02:25:42;17.40;99.90
45735;DHT22;31446;49.632;8.328;2023-07-20T02:40:48;17.40;99.90
45735;DHT22;31446;49.632;8.328;2023-07-20T02:55:54;17.20;99.90
45735;DHT22;31446;49.632;8.328;2023-07-20T03:11:00;16.90;99.90
45735;DHT22;31446;49.632;8.328;2023-07-20T03:26:07;16.60;99.90
45735;DHT22;31446;49.632;8.328;2023-07-20T03:41:13;16.40;99.90
45735;DHT22;31446;49.632;8.328;2023-07-20T03:56:19;16.60;99.90
45735;DHT22;31446;49.632;8.328;2023-07-20T04:11:26;16.60;99.90
45735;DHT22;31446;49.632;8.328;2023-07-20T04:26:32;16.20;99.90
45735;DHT22;31446;49.632;8.328;2023-07-20T04:41:38;16.30;99.90
45735;DHT22;31446;49.632;8.328;2023-07-20T04:56:44;16.50;99.90
45735;DHT22;31446;49.632;8.328;2023-07-20T05:11:51;17.70;99.90
45735;DHT22;31446;49.632;8.328;2023-07-20T05:26:57;18.00;99.90
45735;DHT22;31446;49.632;8.328;2023-07-20T05:42:04;18.60;99.90
45735;DHT22;31446;49.632;8.328;2023-07-20T05:57:10;19.70;99.90
45735;DHT22;31446;49.632;8.328;2023-07-20T06:12:16;19.80;99.90
45735;DHT22;31446;49.632;8.328;2023-07-20T06:27:23;20.50;99.90
45735;DHT22;31446;49.632;8.328;2023-07-20T06:42:29;20.40;99.90
45735;DHT22;31446;49.632;8.328;2023-07-20T06:57:35;20.70;99.90
45735;DHT22;31446;49.632;8.328;2023-07-20T07:12:41;20.80;99.90
45735;DHT22;31446;49.632;8.328;2023-07-20T07:27:47;21.00;99.90
45735;DHT22;31446;49.632;8.328;2023-07-20T07:42:54;21.40;99.90
45735;DHT22;31446;49.632;8.328;2023-07-20T07:58:00;22.50;99.90
45735;DHT22;31446;49.632;8.328;2023-07-20T08:13:06;23.10;99.90
45735;DHT22;31446;49.632;8.328;2023-07-20T08:28:14;22.60;99.90
45735;DHT22;31446;49.632;8.328;2023-07-20T08:43:23;23.60;99.10
45735;DHT22;31446;49.632;8.328;2023-07-20T08:58:30;23.70;98.10
45735;DHT22;31446;49.632;8.328;2023-07-20T09:13:37;23.70;97.10
45735;DHT22;31446;49.632;8.328;2023-07-20T09:28:48;23.40;95.50
45735;DHT22;31446;49.632;8.328;2023-07-20T09:43:54;24.60;94.60
45735;DHT22;31446;49.632;8.328;2023-07-20T09:59:01;25.60;92.60
45735;DHT22;31446;49.632;8.328;2023-07-20T10:14:07;25.30;92.30
45735;DHT22;31446;49.632;8.328;2023-07-20T10:29:15;25.20;92.00
45735;DHT22;31446;49.632;8.328;2023-07-20T10:44:22;26.20;90.60
45735;DHT22;31446;49.632;8.328;2023-07-20T10:59:38;25.60;90.90
45735;DHT22;31446;49.632;8.328;2023-07-20T11:14:54;28.20;88.20
45735;DHT22;31446;49.632;8.328;2023-07-20T11:30:01;27.50;86.80
45735;DHT22;31446;49.632;8.328;2023-07-20T11:45:09;25.80;89.10
45735;DHT22;31446;49.632;8.328;2023-07-20T12:00:16;25.30;89.10
45735;DHT22;31446;49.632;8.328;2023-07-20T12:15:24;27.30;87.30
45735;DHT22;31446;49.632;8.328;2023-07-20T12:30:32;27.80;84.40
45735;DHT22;31446;49.632;8.328;2023-07-20T12:45:38;27.20;85.60
45735;DHT22;31446;49.632;8.328;2023-07-20T13:00:45;26.40;85.60
45735;DHT22;31446;49.632;8.328;2023-07-20T13:15:51;26.80;83.90
45735;DHT22;31446;49.632;8.328;2023-07-20T13:30:57;26.90;83.40
45735;DHT22;31446;49.632;8.328;2023-07-20T13:46:03;27.20;84.80
45735;DHT22;31446;49.632;8.328;2023-07-20T14:01:10;26.00;86.70
45735;DHT22;31446;49.632;8.328;2023-07-20T14:16:16;26.90;86.20
45735;DHT22;31446;49.632;8.328;2023-07-20T14:31:22;27.20;84.10
45735;DHT22;31446;49.632;8.328;2023-07-20T14:46:28;27.20;84.50
45735;DHT22;31446;49.632;8.328;2023-07-20T15:01:35;27.40;82.80
45735;DHT22;31446;49.632;8.328;2023-07-20T15:16:41;27.50;83.70
45735;DHT22;31446;49.632;8.328;2023-07-20T15:31:48;27.30;82.10
45735;DHT22;31446;49.632;8.328;2023-07-20T15:46:54;27.00;82.10
45735;DHT22;31446;49.632;8.328;2023-07-20T16:02:00;26.80;80.70
45735;DHT22;31446;49.632;8.328;2023-07-20T16:17:09;27.10;81.40
45735;DHT22;31446;49.632;8.328;2023-07-20T16:32:15;26.30;80.50
45735;DHT22;31446;49.632;8.328;2023-07-20T16:47:21;26.00;80.90
45735;DHT22;31446;49.632;8.328;2023-07-20T17:02:27;26.10;81.60
45735;DHT22;31446;49.632;8.328;2023-07-20T17:17:35;25.90;82.10
45735;DHT22;31446;49.632;8.328;2023-07-20T17:32:41;25.90;81.30
45735;DHT22;31446;49.632;8.328;2023-07-20T17:47:47;25.50;83.00
45735;DHT22;31446;49.632;8.328;2023-07-20T18:02:53;25.00;85.00
45735;DHT22;31446;49.632;8.328;2023-07-20T18:18:00;24.50;85.80
45735;DHT22;31446;49.632;8.328;2023-07-20T18:33:06;24.10;86.80
45735;DHT22;31446;49.632;8.328;2023-07-20T18:48:13;23.90;87.30
45735;DHT22;31446;49.632;8.328;2023-07-20T19:03:19;23.70;88.10
45735;DHT22;31446;49.632;8.328;2023-07-20T19:18:25;23.30;89.10
45735;DHT22;31446;49.632;8.328;2023-07-20T19:33:31;22.80;90.30
45735;DHT22;31446;49.632;8.328;2023-07-20T19:48:38;22.70;90.50
45735;DHT22;31446;49.632;8.328;2023-07-20T20:03:44;22.70;90.70
45735;DHT22;31446;49.632;8.328;2023-07-20T20:18:50;22.40;91.10
45735;DHT22;31446;49.632;8.328;2023-07-20T20:33:56;22.20;90.90
45735;DHT22;31446;49.632;8.328;2023-07-20T20:49:03;22.10;90.90
45735;DHT22;31446;49.632;8.328;2023-07-20T21:04:09;21.90;91.30
45735;DHT22;31446;49.632;8.328;2023-07-20T21:19:15;21.80;91.90
45735;DHT22;31446;49.632;8.328;2023-07-20T21:34:21;21.60;92.10
45735;DHT22;31446;49.632;8.328;2023-07-20T21:49:27;21.60;92.00
45735;DHT22;31446;49.632;8.328;2023-07-20T22:04:34;21.50;92.30
45735;DHT22;31446;49.632;8.328;2023-07-20T22:19:41;21.40;93.10
45735;DHT22;31446;49.632;8.328;2023-07-20T22:34:47;21.30;93.80
45735;DHT22;31446;49.632;8.328;2023-07-20T22:49:53;21.20;93.80
45735;DHT22;31446;49.632;8.328;2023-07-20T23:05:00;21.00;94.70
45735;DHT22;31446;49.632;8.328;2023-07-20T23:20:08;20.80;95.00
45735;DHT22;31446;49.632;8.328;2023-07-20T23:35:21;20.70;95.50
45735;DHT22;31446;49.632;8.328;2023-07-20T23:50:27;20.60;95.50
